Time;durP1;ratioP1;P1;durP2;ratioP2;P2;SDS_P1;SDS_P2;PMS_P1;PMS_P2;Temp;Humidity;BMP_temperature;BMP_pressure;BME280_temperature;BME280_humidity;BME280_pressure;Samples;Min_cycle;Max_cycle;Signal;HPM_P1;HPM_P2
2023/01/08 00:01:59;;;;;;;42.30;16.77;;;;;;;;;;8238319;28;20049;-84
2023/01/08 00:06:03;;;;;;;37.88;14.07;;;;;;;;;;8237205;28;20117;-84
2023/01/08 00:10:09;;;;;;;41.70;17.13;;;;;;;;;;8238268;28;20058;-84
2023/01/08 00:14:12;;;;;;;34.40;13.55;;;;;;;;;;8229607;28;20109;-84
2023/01/08 00:18:16;;;;;;;36.20;15.68;;;;;;;;;;8220805;28;20058;-85
2023/01/08 00:22:19;;;;;;;33.63;15.27;;;;;;;;;;8208116;28;20074;-84
2023/01/08 00:26:22;;;;;;;26.90;12.15;;;;;;;;;;8220301;28;20492;-85
2023/01/08 00:30:25;;;;;;;34.03;15.02;;;;;;;;;;8204529;28;20476;-84
2023/01/08 00:34:29;;;;;;;33.08;15.05;;;;;;;;;;8207421;28;20071;-89
2023/01/08 00:38:32;;;;;;;33.47;13.82;;;;;;;;;;8223976;28;20046;-84
2023/01/08 00:42:37;;;;;;;43.97;16.95;;;;;;;;;;8173547;28;20089;-84
2023/01/08 00:46:40;;;;;;;30.98;14.27;;;;;;;;;;8213840;28;20126;-84
2023/01/08 00:50:44;;;;;;;37.60;15.50;;;;;;;;;;8215404;28;20051;-84
2023/01/08 00:54:47;;;;;;;41.38;16.20;;;;;;;;;;8203562;28;20484;-85
2023/01/08 00:58:50;;;;;;;38.65;16.63;;;;;;;;;;8213631;28;20471;-84
2023/01/08 01:02:53;;;;;;;40.15;15.35;;;;;;;;;;8214539;28;20083;-85
2023/01/08 01:06:58;;;;;;;41.58;16.13;;;;;;;;;;8211669;28;20050;-84
2023/01/08 01:11:01;;;;;;;37.33;15.35;;;;;;;;;;8214880;28;20047;-84
2023/01/08 01:15:04;;;;;;;41.88;18.20;;;;;;;;;;8232536;28;20106;-84
2023/01/08 01:19:07;;;;;;;29.95;12.50;;;;;;;;;;8242227;28;20066;-84
2023/01/08 01:23:12;;;;;;;38.53;16.75;;;;;;;;;;8242439;28;20050;-85
2023/01/08 01:27:14;;;;;;;42.60;17.33;;;;;;;;;;8241523;28;20122;-87
2023/01/08 01:31:18;;;;;;;30.35;12.00;;;;;;;;;;8242136;28;20054;-84
2023/01/08 01:35:21;;;;;;;38.08;17.17;;;;;;;;;;8241295;28;20057;-86
2023/01/08 01:39:26;;;;;;;35.15;16.50;;;;;;;;;;8241388;28;20101;-85
2023/01/08 01:43:58;;;;;;;39.92;17.65;;;;;;;;;;8241248;28;20427;-85
2023/01/08 01:48:06;;;;;;;29.48;11.98;;;;;;;;;;8239360;28;20137;-85
2023/01/08 01:52:10;;;;;;;31.00;13.43;;;;;;;;;;8229518;28;20043;-84
2023/01/08 01:56:14;;;;;;;28.50;13.23;;;;;;;;;;8237218;28;20053;-84
2023/01/08 02:00:19;;;;;;;28.70;12.63;;;;;;;;;;8230500;28;20055;-84
2023/01/08 02:04:21;;;;;;;35.50;15.13;;;;;;;;;;8240452;28;20452;-84
2023/01/08 02:08:35;;;;;;;22.40;10.27;;;;;;;;;;8239295;28;20062;-86
2023/01/08 02:12:44;;;;;;;14.27;5.30;;;;;;;;;;8234486;28;20086;-84
2023/01/08 02:16:54;;;;;;;25.80;12.73;;;;;;;;;;8238993;28;20534;-83
2023/01/08 02:21:03;;;;;;;27.75;12.30;;;;;;;;;;8237348;28;20078;-84
2023/01/08 02:25:13;;;;;;;29.63;14.50;;;;;;;;;;8220765;28;20459;-84
2023/01/08 02:29:22;;;;;;;30.50;13.02;;;;;;;;;;8239387;28;20049;-84
2023/01/08 02:33:27;;;;;;;18.60;8.27;;;;;;;;;;8232493;28;20125;-84
2023/01/08 02:37:31;;;;;;;27.58;12.32;;;;;;;;;;8237990;28;20050;-85
2023/01/08 02:41:40;;;;;;;30.38;11.68;;;;;;;;;;8231562;28;20097;-85
2023/01/08 02:45:50;;;;;;;29.45;11.75;;;;;;;;;;8225174;28;20051;-84
2023/01/08 02:50:01;;;;;;;23.90;8.98;;;;;;;;;;8237653;28;20059;-84
2023/01/08 02:54:07;;;;;;;23.65;11.60;;;;;;;;;;8238491;28;20050;-84
2023/01/08 02:58:11;;;;;;;25.95;12.15;;;;;;;;;;8235060;28;20047;-84
2023/01/08 03:02:16;;;;;;;24.30;11.05;;;;;;;;;;8236531;28;20418;-84
2023/01/08 03:06:21;;;;;;;14.15;6.20;;;;;;;;;;8237101;28;20145;-84
2023/01/08 03:10:30;;;;;;;13.80;7.00;;;;;;;;;;8230712;28;20042;-84
2023/01/08 03:14:37;;;;;;;24.27;11.27;;;;;;;;;;8235246;28;20055;-84
2023/01/08 03:18:47;;;;;;;18.55;7.75;;;;;;;;;;8236042;28;20069;-85
2023/01/08 03:22:53;;;;;;;13.63;7.35;;;;;;;;;;8234664;28;20475;-84
2023/01/08 03:26:59;;;;;;;27.88;10.93;;;;;;;;;;8233278;28;20043;-85
2023/01/08 03:31:03;;;;;;;26.77;11.15;;;;;;;;;;8233076;28;20053;-84
2023/01/08 03:35:11;;;;;;;19.33;9.50;;;;;;;;;;8234587;28;20042;-85
2023/01/08 03:39:18;;;;;;;25.88;11.05;;;;;;;;;;8233663;28;20458;-85
2023/01/08 03:43:20;;;;;;;16.48;8.50;;;;;;;;;;8232650;28;20043;-84
2023/01/08 03:47:26;;;;;;;22.35;10.65;;;;;;;;;;8235365;28;20050;-84
2023/01/08 03:51:40;;;;;;;19.92;10.40;;;;;;;;;;8236078;28;20104;-91
2023/01/08 03:55:43;;;;;;;26.95;13.10;;;;;;;;;;8235187;28;20047;-84
2023/01/08 03:59:45;;;;;;;23.50;10.23;;;;;;;;;;8234336;28;20053;-84
2023/01/08 04:03:48;;;;;;;13.77;6.72;;;;;;;;;;8233038;28;20483;-84
2023/01/08 04:07:55;;;;;;;26.08;11.48;;;;;;;;;;8231779;28;20082;-84
2023/01/08 04:11:58;;;;;;;20.52;10.07;;;;;;;;;;8232651;28;20059;-84
2023/01/08 04:16:00;;;;;;;20.05;10.40;;;;;;;;;;8219568;28;20079;-84
2023/01/08 04:20:04;;;;;;;23.50;10.60;;;;;;;;;;8231752;28;20110;-83
2023/01/08 04:24:08;;;;;;;27.27;11.65;;;;;;;;;;8232016;28;20050;-84
2023/01/08 04:28:11;;;;;;;25.08;12.20;;;;;;;;;;8232731;28;20047;-84
2023/01/08 04:32:13;;;;;;;15.45;8.35;;;;;;;;;;8235578;28;20475;-85
2023/01/08 04:36:16;;;;;;;25.73;12.45;;;;;;;;;;8234363;28;20066;-84
2023/01/08 04:40:20;;;;;;;22.17;11.07;;;;;;;;;;8219751;28;20079;-84
2023/01/08 04:44:23;;;;;;;23.92;9.13;;;;;;;;;;8234545;28;20050;-84
2023/01/08 04:48:26;;;;;;;15.70;6.90;;;;;;;;;;8234089;28;20490;-84
2023/01/08 04:52:29;;;;;;;13.18;7.40;;;;;;;;;;8235494;28;20110;-83
2023/01/08 04:56:33;;;;;;;26.13;10.80;;;;;;;;;;8240434;28;20597;-83
2023/01/08 05:00:36;;;;;;;21.92;10.38;;;;;;;;;;8239446;28;20101;-84
2023/01/08 05:04:39;;;;;;;21.85;10.15;;;;;;;;;;8239167;28;20111;-86
2023/01/08 05:08:42;;;;;;;23.83;10.82;;;;;;;;;;8239532;28;20042;-87
2023/01/08 05:12:46;;;;;;;25.15;10.65;;;;;;;;;;8238518;28;20116;-83
2023/01/08 05:16:49;;;;;;;17.40;8.40;;;;;;;;;;8239570;28;20046;-83
2023/01/08 05:20:51;;;;;;;17.08;8.88;;;;;;;;;;8237471;28;20061;-84
2023/01/08 05:24:54;;;;;;;17.83;9.32;;;;;;;;;;8237640;28;20043;-83
2023/01/08 05:28:58;;;;;;;21.13;10.43;;;;;;;;;;8237819;28;20514;-88
2023/01/08 05:33:01;;;;;;;22.83;10.90;;;;;;;;;;8237037;28;20049;-84
2023/01/08 05:37:04;;;;;;;30.38;14.45;;;;;;;;;;8236626;28;20043;-83
2023/01/08 05:41:07;;;;;;;25.52;10.95;;;;;;;;;;8233401;28;20054;-83
2023/01/08 05:45:12;;;;;;;20.55;10.07;;;;;;;;;;8238821;28;21526;-83
2023/01/08 05:49:14;;;;;;;25.13;11.18;;;;;;;;;;8240731;28;20043;-83
2023/01/08 05:53:17;;;;;;;24.35;11.93;;;;;;;;;;8238915;28;20101;-83
2023/01/08 05:57:20;;;;;;;17.45;9.07;;;;;;;;;;8236465;28;20050;-83
2023/01/08 06:01:24;;;;;;;21.10;9.82;;;;;;;;;;8237972;28;20096;-83
2023/01/08 06:05:27;;;;;;;24.65;11.38;;;;;;;;;;8235228;28;20098;-82
2023/01/08 06:09:30;;;;;;;20.40;9.82;;;;;;;;;;8235696;28;20138;-82
2023/01/08 06:13:33;;;;;;;19.58;10.02;;;;;;;;;;8232906;28;20055;-82
2023/01/08 06:17:37;;;;;;;22.80;9.43;;;;;;;;;;8222859;28;20502;-82
2023/01/08 06:21:40;;;;;;;19.50;10.35;;;;;;;;;;8233135;28;20049;-93
2023/01/08 06:25:42;;;;;;;20.77;9.88;;;;;;;;;;8226472;28;20055;-84
2023/01/08 06:29:45;;;;;;;11.48;6.20;;;;;;;;;;8218183;28;20038;-83
2023/01/08 06:33:49;;;;;;;22.92;11.60;;;;;;;;;;8235077;28;20047;-83
2023/01/08 06:37:54;;;;;;;17.33;8.95;;;;;;;;;;8229334;28;20125;-82
2023/01/08 06:41:56;;;;;;;21.45;11.52;;;;;;;;;;8234168;28;20165;-82
2023/01/08 06:45:59;;;;;;;18.05;9.57;;;;;;;;;;8235211;28;20050;-87
2023/01/08 06:50:05;;;;;;;17.67;8.05;;;;;;;;;;8233986;28;20051;-83
2023/01/08 06:54:08;;;;;;;9.27;4.85;;;;;;;;;;8234223;28;20047;-82
2023/01/08 06:58:12;;;;;;;17.90;9.00;;;;;;;;;;8233170;28;20054;-83
2023/01/08 07:02:15;;;;;;;15.32;7.75;;;;;;;;;;8232249;28;20053;-82
2023/01/08 07:06:21;;;;;;;25.23;12.63;;;;;;;;;;8233792;28;20062;-82
2023/01/08 07:10:25;;;;;;;15.15;8.70;;;;;;;;;;8219986;28;20050;-82
2023/01/08 07:14:28;;;;;;;21.30;9.48;;;;;;;;;;8208846;28;20134;-82
2023/01/08 07:18:31;;;;;;;22.00;10.65;;;;;;;;;;8201151;29;20491;-83
2023/01/08 07:22:35;;;;;;;25.90;13.02;;;;;;;;;;8201057;29;20126;-83
2023/01/08 07:26:38;;;;;;;20.45;9.90;;;;;;;;;;8199241;29;20053;-87
2023/01/08 07:30:42;;;;;;;19.65;9.07;;;;;;;;;;8190921;29;20074;-88
2023/01/08 07:34:44;;;;;;;19.40;9.93;;;;;;;;;;8184308;29;20063;-85
2023/01/08 07:38:50;;;;;;;20.38;10.50;;;;;;;;;;8188183;29;20066;-85
2023/01/08 07:42:59;;;;;;;20.63;11.25;;;;;;;;;;8200526;28;20054;-86
2023/01/08 07:47:02;;;;;;;21.30;9.75;;;;;;;;;;8200681;29;20686;-85
2023/01/08 07:51:06;;;;;;;17.17;7.95;;;;;;;;;;8200713;28;20047;-82
2023/01/08 07:55:11;;;;;;;14.13;8.38;;;;;;;;;;8199954;28;20047;-83
2023/01/08 07:59:14;;;;;;;18.88;9.75;;;;;;;;;;8197250;28;20074;-84
2023/01/08 08:03:16;;;;;;;22.00;10.60;;;;;;;;;;8193207;29;20075;-83
2023/01/08 08:07:19;;;;;;;23.67;9.77;;;;;;;;;;8198471;29;20066;-82
2023/01/08 08:11:23;;;;;;;20.10;10.48;;;;;;;;;;8199067;28;20126;-82
2023/01/08 08:15:26;;;;;;;26.30;12.02;;;;;;;;;;8220904;28;20743;-83
2023/01/08 08:19:29;;;;;;;24.65;12.27;;;;;;;;;;8184216;28;20130;-83
2023/01/08 08:23:32;;;;;;;20.25;9.90;;;;;;;;;;8203924;28;20130;-88
2023/01/08 08:27:40;;;;;;;23.35;11.50;;;;;;;;;;8199508;28;20047;-83
2023/01/08 08:31:45;;;;;;;15.43;8.80;;;;;;;;;;8204998;29;20527;-83
2023/01/08 08:35:51;;;;;;;20.92;10.18;;;;;;;;;;8193808;28;20696;-83
2023/01/08 08:39:54;;;;;;;19.10;9.48;;;;;;;;;;8214562;28;20708;-84
2023/01/08 08:43:58;;;;;;;17.13;8.90;;;;;;;;;;8206091;28;20050;-85
2023/01/08 08:48:01;;;;;;;21.90;11.05;;;;;;;;;;8206124;29;20502;-83
2023/01/08 08:52:04;;;;;;;20.67;9.20;;;;;;;;;;8208838;28;20051;-82
2023/01/08 08:56:08;;;;;;;18.67;10.23;;;;;;;;;;8211568;28;20063;-83
2023/01/08 09:00:14;;;;;;;19.15;9.60;;;;;;;;;;8205057;28;20043;-84
2023/01/08 09:04:16;;;;;;;24.13;10.90;;;;;;;;;;8188467;29;20142;-83
2023/01/08 09:08:19;;;;;;;22.30;10.93;;;;;;;;;;8205844;28;20121;-84
2023/01/08 09:12:22;;;;;;;27.48;13.80;;;;;;;;;;8211132;28;20066;-84
2023/01/08 09:16:27;;;;;;;19.98;9.90;;;;;;;;;;8228528;28;20054;-84
2023/01/08 09:20:30;;;;;;;21.45;9.82;;;;;;;;;;8231444;28;20542;-92
2023/01/08 09:24:36;;;;;;;19.58;9.95;;;;;;;;;;8225239;28;20053;-84
2023/01/08 09:28:39;;;;;;;17.42;9.05;;;;;;;;;;8236604;28;20046;-84
2023/01/08 09:32:43;;;;;;;16.65;9.25;;;;;;;;;;8234693;28;20731;-85
2023/01/08 09:36:46;;;;;;;16.60;8.70;;;;;;;;;;8234460;28;20078;-88
2023/01/08 09:40:55;;;;;;;17.52;9.68;;;;;;;;;;8228874;28;20047;-84
2023/01/08 09:45:05;;;;;;;17.52;9.75;;;;;;;;;;8233060;28;20057;-83
2023/01/08 09:49:15;;;;;;;13.77;7.93;;;;;;;;;;8227764;28;20043;-84
2023/01/08 09:53:19;;;;;;;8.85;4.38;;;;;;;;;;8215233;28;20078;-84
2023/01/08 09:57:22;;;;;;;14.07;8.48;;;;;;;;;;8210554;28;20051;-88
2023/01/08 10:01:28;;;;;;;15.23;8.57;;;;;;;;;;8206799;28;20043;-85
2023/01/08 10:05:33;;;;;;;14.88;8.50;;;;;;;;;;8204720;28;20047;-85
2023/01/08 10:09:36;;;;;;;16.00;8.77;;;;;;;;;;8214734;28;20494;-85
2023/01/08 10:13:40;;;;;;;13.32;8.15;;;;;;;;;;8232345;28;20061;-86
2023/01/08 10:17:47;;;;;;;12.93;7.53;;;;;;;;;;8229953;28;20126;-89
2023/01/08 10:21:53;;;;;;;14.55;8.98;;;;;;;;;;8217747;28;20167;-87
2023/01/08 10:25:58;;;;;;;13.10;7.97;;;;;;;;;;8205490;28;20456;-87
2023/01/08 10:30:06;;;;;;;10.23;6.20;;;;;;;;;;8209349;28;20088;-86
2023/01/08 10:34:11;;;;;;;15.57;8.52;;;;;;;;;;8224957;28;20133;-87
2023/01/08 10:38:26;;;;;;;12.70;7.35;;;;;;;;;;8204541;28;20129;-86
2023/01/08 10:42:34;;;;;;;12.95;7.32;;;;;;;;;;8200291;28;20137;-86
2023/01/08 10:46:43;;;;;;;15.02;9.05;;;;;;;;;;8202051;28;20487;-86
2023/01/08 10:50:46;;;;;;;14.25;7.85;;;;;;;;;;8208344;28;20471;-85
2023/01/08 10:54:51;;;;;;;16.13;9.00;;;;;;;;;;8185591;28;20414;-87
2023/01/08 10:58:54;;;;;;;14.90;8.48;;;;;;;;;;8216537;28;20051;-88
2023/01/08 11:02:59;;;;;;;14.60;7.85;;;;;;;;;;8201925;28;20050;-87
2023/01/08 11:07:03;;;;;;;13.25;7.22;;;;;;;;;;8199721;28;20051;-89
2023/01/08 11:11:10;;;;;;;14.90;8.93;;;;;;;;;;8213749;28;20055;-87
2023/01/08 11:15:31;;;;;;;12.73;7.40;;;;;;;;;;8221634;28;20064;-87
2023/01/08 11:19:35;;;;;;;12.80;7.95;;;;;;;;;;8198827;28;20050;-88
2023/01/08 11:23:38;;;;;;;12.80;7.90;;;;;;;;;;8222655;28;20043;-88
2023/01/08 11:27:45;;;;;;;10.95;6.47;;;;;;;;;;8209288;28;20524;-88
2023/01/08 11:31:54;;;;;;;15.75;8.52;;;;;;;;;;8219351;28;20146;-88
2023/01/08 11:36:03;;;;;;;11.55;6.63;;;;;;;;;;8221294;28;20742;-87
2023/01/08 11:40:14;;;;;;;61.33;36.65;;;;;;;;;;8205568;28;20075;-88
2023/01/08 11:44:30;;;;;;;25.13;12.20;;;;;;;;;;8210414;28;20501;-88
2023/01/08 11:48:54;;;;;;;14.43;9.57;;;;;;;;;;8216603;28;20047;-88
2023/01/08 11:53:18;;;;;;;26.77;17.85;;;;;;;;;;8214116;28;20126;-88
2023/01/08 11:57:34;;;;;;;11.13;7.10;;;;;;;;;;8213539;28;20153;-88
2023/01/08 12:01:49;;;;;;;30.85;18.80;;;;;;;;;;8213776;28;20066;-88
2023/01/08 12:06:01;;;;;;;19.90;13.75;;;;;;;;;;8202894;28;20651;-88
2023/01/08 12:10:14;;;;;;;14.43;7.90;;;;;;;;;;8186365;28;20047;-88
2023/01/08 12:14:31;;;;;;;24.15;12.10;;;;;;;;;;8213703;28;20496;-88
2023/01/08 12:18:54;;;;;;;32.40;18.90;;;;;;;;;;8175682;28;20136;-88
2023/01/08 12:23:11;;;;;;;53.40;31.23;;;;;;;;;;8200270;28;20047;-86
2023/01/08 12:27:23;;;;;;;29.15;14.40;;;;;;;;;;8185453;28;20162;-89
2023/01/08 12:31:58;;;;;;;55.40;25.90;;;;;;;;;;8188720;28;20591;-88
2023/01/08 12:36:10;;;;;;;19.98;9.70;;;;;;;;;;8179645;28;20476;-88
2023/01/08 12:40:20;;;;;;;20.50;12.18;;;;;;;;;;8175948;28;20054;-88
2023/01/08 12:44:29;;;;;;;22.73;13.55;;;;;;;;;;8171354;28;20062;-88
2023/01/08 12:48:35;;;;;;;21.98;13.13;;;;;;;;;;8181024;28;20599;-88
2023/01/08 12:52:48;;;;;;;32.33;16.63;;;;;;;;;;8181831;28;20053;-88
2023/01/08 12:56:55;;;;;;;35.28;21.63;;;;;;;;;;8192887;28;20075;-88
2023/01/08 13:01:08;;;;;;;37.25;22.48;;;;;;;;;;8195266;28;20539;-88
2023/01/08 13:05:14;;;;;;;31.75;18.52;;;;;;;;;;8191557;28;20437;-89
2023/01/08 13:09:23;;;;;;;45.15;22.33;;;;;;;;;;8184918;28;20137;-88
2023/01/08 13:13:28;;;;;;;38.67;24.17;;;;;;;;;;8201013;28;21886;-88
2023/01/08 13:17:31;;;;;;;18.35;11.73;;;;;;;;;;8213599;28;20047;-88
2023/01/08 13:21:37;;;;;;;29.08;16.05;;;;;;;;;;8220180;28;20053;-88
2023/01/08 13:25:52;;;;;;;26.30;17.00;;;;;;;;;;8204914;28;20086;-88
2023/01/08 13:29:57;;;;;;;19.40;12.02;;;;;;;;;;8219693;28;20193;-88
2023/01/08 13:34:00;;;;;;;21.70;11.77;;;;;;;;;;8221032;28;20039;-88
2023/01/08 13:38:15;;;;;;;21.27;12.77;;;;;;;;;;8228262;28;20090;-89
2023/01/08 13:42:35;;;;;;;18.25;10.18;;;;;;;;;;8226391;28;20046;-90
2023/01/08 13:46:39;;;;;;;22.45;13.85;;;;;;;;;;8226204;28;20043;-86
2023/01/08 13:50:47;;;;;;;25.13;11.98;;;;;;;;;;8215338;28;20047;-89
2023/01/08 13:54:50;;;;;;;26.55;11.75;;;;;;;;;;8219433;28;20097;-89
2023/01/08 13:58:55;;;;;;;23.48;12.13;;;;;;;;;;8209890;28;20450;-90
2023/01/08 14:02:58;;;;;;;22.35;12.90;;;;;;;;;;8220992;28;20051;-90
2023/01/08 14:07:14;;;;;;;20.17;11.55;;;;;;;;;;8213358;28;20726;-89
2023/01/08 14:11:17;;;;;;;52.08;29.60;;;;;;;;;;8205965;28;20047;-88
2023/01/08 14:15:24;;;;;;;37.67;20.67;;;;;;;;;;8216531;28;20062;-88
2023/01/08 14:19:28;;;;;;;46.03;20.65;;;;;;;;;;8213720;28;20058;-88
2023/01/08 14:23:36;;;;;;;24.80;12.82;;;;;;;;;;8193212;28;20054;-88
2023/01/08 14:27:40;;;;;;;26.90;13.40;;;;;;;;;;8211171;28;20796;-89
2023/01/08 14:31:50;;;;;;;32.63;16.00;;;;;;;;;;8209597;28;20133;-89
2023/01/08 14:35:54;;;;;;;25.15;13.15;;;;;;;;;;8218703;28;20458;-89
2023/01/08 14:39:57;;;;;;;92.20;31.27;;;;;;;;;;8218719;28;20133;-91
2023/01/08 14:44:00;;;;;;;195.40;53.55;;;;;;;;;;8212467;28;20055;-91
2023/01/08 14:48:11;;;;;;;28.63;15.02;;;;;;;;;;8205349;28;20054;-90
2023/01/08 14:52:17;;;;;;;123.53;65.10;;;;;;;;;;8200466;28;20126;-91
2023/01/08 14:56:24;;;;;;;27.55;15.07;;;;;;;;;;8206957;28;20050;-91
2023/01/08 15:00:30;;;;;;;29.85;13.90;;;;;;;;;;8212170;28;20055;-91
2023/01/08 15:04:35;;;;;;;34.92;15.30;;;;;;;;;;8205930;28;20051;-90
2023/01/08 15:08:42;;;;;;;36.00;17.23;;;;;;;;;;8211596;28;20577;-90
2023/01/08 15:12:45;;;;;;;31.90;16.52;;;;;;;;;;8223443;28;20089;-90
2023/01/08 15:16:48;;;;;;;59.55;31.67;;;;;;;;;;8217044;28;20046;-90
2023/01/08 15:20:53;;;;;;;48.78;24.05;;;;;;;;;;8217608;28;20066;-89
2023/01/08 15:24:58;;;;;;;64.85;30.20;;;;;;;;;;8215111;28;20046;-90
2023/01/08 15:29:05;;;;;;;33.47;15.98;;;;;;;;;;8215964;28;20058;-89
2023/01/08 15:33:16;;;;;;;31.75;13.57;;;;;;;;;;8222253;28;20053;-91
2023/01/08 15:37:21;;;;;;;32.55;14.95;;;;;;;;;;8220339;28;20043;-90
2023/01/08 15:45:46;;;;;;;29.20;14.25;;;;;;;;;;8214516;28;20057;-91
2023/01/08 15:49:49;;;;;;;41.65;20.13;;;;;;;;;;8213279;28;20051;-91
2023/01/08 15:53:54;;;;;;;48.90;21.48;;;;;;;;;;8206375;28;20051;-91
2023/01/08 15:57:57;;;;;;;65.38;34.75;;;;;;;;;;8212199;28;20506;-91
2023/01/08 16:02:00;;;;;;;44.92;22.33;;;;;;;;;;8223587;28;20534;-91
2023/01/08 16:06:06;;;;;;;61.78;28.55;;;;;;;;;;8219421;28;20488;-91
2023/01/08 16:10:13;;;;;;;53.15;26.15;;;;;;;;;;8215695;28;20081;-90
2023/01/08 16:14:16;;;;;;;56.30;25.63;;;;;;;;;;8217136;28;20062;-91
2023/01/08 16:18:19;;;;;;;59.70;26.90;;;;;;;;;;8205694;28;20047;-90
2023/01/08 16:22:22;;;;;;;78.97;33.05;;;;;;;;;;8212560;28;20145;-90
2023/01/08 16:26:26;;;;;;;84.78;34.15;;;;;;;;;;8196302;28;20396;-90
2023/01/08 16:30:35;;;;;;;45.75;21.50;;;;;;;;;;8207954;28;20382;-91
2023/01/08 16:34:39;;;;;;;137.55;53.28;;;;;;;;;;8183848;28;20125;-91
2023/01/08 16:38:49;;;;;;;157.07;55.08;;;;;;;;;;8195114;28;20086;-91
2023/01/08 16:42:54;;;;;;;26.88;13.00;;;;;;;;;;8206478;28;20567;-91
2023/01/08 16:46:59;;;;;;;191.43;71.47;;;;;;;;;;8207778;28;20047;-91
2023/01/08 16:51:08;;;;;;;244.43;76.80;;;;;;;;;;8206919;28;20053;-91
2023/01/08 16:55:14;;;;;;;53.72;23.63;;;;;;;;;;8208363;28;20058;-90
2023/01/08 16:59:18;;;;;;;43.38;22.45;;;;;;;;;;8220284;28;20058;-90
2023/01/08 17:03:23;;;;;;;60.42;30.02;;;;;;;;;;8205744;28;20055;-90
2023/01/08 17:07:27;;;;;;;137.57;43.53;;;;;;;;;;8206857;28;20500;-90
2023/01/08 17:11:31;;;;;;;75.75;32.83;;;;;;;;;;8207226;28;20118;-91
2023/01/08 17:15:39;;;;;;;66.13;30.30;;;;;;;;;;8201411;28;20078;-91
2023/01/08 17:19:42;;;;;;;47.97;21.60;;;;;;;;;;8203136;28;20252;-91
2023/01/08 17:23:48;;;;;;;53.90;24.45;;;;;;;;;;8213724;28;20417;-91
2023/01/08 17:27:52;;;;;;;55.03;23.63;;;;;;;;;;8228469;28;20137;-91
2023/01/08 17:31:59;;;;;;;53.88;23.40;;;;;;;;;;8224321;28;20054;-91
2023/01/08 17:36:12;;;;;;;87.63;36.72;;;;;;;;;;8220292;28;20575;-90
2023/01/08 17:40:15;;;;;;;80.97;30.65;;;;;;;;;;8185663;29;20051;-90
2023/01/08 17:44:21;;;;;;;74.22;29.13;;;;;;;;;;8202412;29;20151;-90
2023/01/08 17:48:26;;;;;;;85.78;35.38;;;;;;;;;;8187321;29;20057;-89
2023/01/08 17:52:34;;;;;;;67.68;30.30;;;;;;;;;;8186481;29;20051;-89
2023/01/08 17:56:38;;;;;;;50.47;22.33;;;;;;;;;;8186887;28;20043;-89
2023/01/08 18:00:41;;;;;;;94.95;32.33;;;;;;;;;;8173311;28;20054;-91
2023/01/08 18:04:47;;;;;;;90.32;35.05;;;;;;;;;;8193047;29;20066;-91
2023/01/08 18:08:50;;;;;;;44.80;20.45;;;;;;;;;;8185288;28;20830;-90
2023/01/08 18:12:54;;;;;;;50.42;20.85;;;;;;;;;;8160420;29;20060;-90
2023/01/08 18:16:58;;;;;;;59.65;22.35;;;;;;;;;;8144049;29;20051;-91
2023/01/08 18:21:03;;;;;;;49.65;20.20;;;;;;;;;;8147011;29;20299;-91
2023/01/08 18:25:13;;;;;;;54.40;23.33;;;;;;;;;;8152198;29;20139;-91
2023/01/08 18:29:17;;;;;;;58.17;23.58;;;;;;;;;;8143815;29;20067;-92
2023/01/08 18:33:22;;;;;;;66.00;25.33;;;;;;;;;;8156572;29;20051;-92
2023/01/08 18:37:28;;;;;;;47.03;21.98;;;;;;;;;;8135620;29;20052;-91
2023/01/08 18:46:01;;;;;;;61.55;25.20;;;;;;;;;;8147696;29;20145;-91
2023/01/08 18:50:05;;;;;;;51.67;21.25;;;;;;;;;;8148731;29;20564;-90
2023/01/08 18:54:22;;;;;;;50.10;21.98;;;;;;;;;;8149853;29;20049;-90
2023/01/08 18:58:27;;;;;;;49.13;19.60;;;;;;;;;;8148549;29;20044;-89
2023/01/08 19:02:32;;;;;;;76.07;33.13;;;;;;;;;;8138253;29;20136;-90
2023/01/08 19:06:37;;;;;;;53.13;22.85;;;;;;;;;;8140209;29;20044;-89
2023/01/08 19:10:42;;;;;;;44.75;19.58;;;;;;;;;;8123963;29;20748;-90
2023/01/08 19:14:47;;;;;;;60.08;26.90;;;;;;;;;;8171661;28;20067;-90
2023/01/08 19:18:51;;;;;;;60.90;25.50;;;;;;;;;;8187756;29;20480;-89
2023/01/08 19:22:56;;;;;;;57.25;23.80;;;;;;;;;;8184218;28;20051;-93
2023/01/08 19:27:01;;;;;;;72.20;28.88;;;;;;;;;;8195998;29;20519;-92
2023/01/08 19:31:04;;;;;;;105.57;40.17;;;;;;;;;;8196472;29;20051;-92
2023/01/08 19:35:08;;;;;;;87.20;33.35;;;;;;;;;;8189132;28;20056;-94
2023/01/08 19:39:17;;;;;;;99.05;35.17;;;;;;;;;;8184863;28;20399;-93
2023/01/08 19:43:43;;;;;;;244.32;87.80;;;;;;;;;;8184196;29;20466;-93
2023/01/08 19:47:47;;;;;;;365.70;112.35;;;;;;;;;;8185081;28;20508;-92
2023/01/08 19:51:52;;;;;;;125.10;44.55;;;;;;;;;;8185503;28;20058;-92
2023/01/08 19:55:56;;;;;;;102.53;38.92;;;;;;;;;;8186918;28;20044;-92
2023/01/08 20:00:05;;;;;;;66.68;27.77;;;;;;;;;;8184905;28;20067;-93
2023/01/08 20:04:11;;;;;;;101.75;34.53;;;;;;;;;;8184538;28;20257;-90
2023/01/08 20:08:16;;;;;;;76.32;28.17;;;;;;;;;;8185563;28;20112;-91
2023/01/08 20:12:20;;;;;;;44.88;20.30;;;;;;;;;;8186045;28;20090;-87
2023/01/08 20:16:30;;;;;;;89.18;29.45;;;;;;;;;;8179233;28;20051;-86
2023/01/08 20:20:36;;;;;;;67.13;24.92;;;;;;;;;;8173342;28;20047;-92
2023/01/08 20:24:44;;;;;;;66.25;26.58;;;;;;;;;;8187562;28;20643;-90
2023/01/08 20:28:51;;;;;;;132.07;44.72;;;;;;;;;;8175858;28;20047;-87
2023/01/08 20:32:56;;;;;;;193.43;65.65;;;;;;;;;;8176411;28;20161;-89
2023/01/08 20:37:00;;;;;;;244.18;52.72;;;;;;;;;;8174132;28;20055;-88
2023/01/08 20:41:05;;;;;;;105.15;35.33;;;;;;;;;;8174085;28;20051;-93
2023/01/08 20:45:10;;;;;;;84.75;35.42;;;;;;;;;;8178874;28;20047;-88
2023/01/08 20:49:19;;;;;;;67.40;25.10;;;;;;;;;;8158312;28;20048;-88
2023/01/08 20:53:25;;;;;;;75.55;29.75;;;;;;;;;;8187131;28;20094;-88
2023/01/08 20:57:29;;;;;;;74.45;29.17;;;;;;;;;;8173044;29;20051;-88
2023/01/08 21:01:34;;;;;;;55.97;24.25;;;;;;;;;;8194406;29;20130;-88
2023/01/08 21:05:39;;;;;;;63.75;25.45;;;;;;;;;;8196019;29;20669;-88
2023/01/08 21:09:44;;;;;;;68.30;25.60;;;;;;;;;;8166439;29;20102;-89
2023/01/08 21:13:48;;;;;;;69.50;25.33;;;;;;;;;;8183236;29;20051;-88
2023/01/08 21:17:51;;;;;;;58.45;24.08;;;;;;;;;;8186683;29;20414;-88
2023/01/08 21:21:57;;;;;;;60.03;25.15;;;;;;;;;;8183745;29;20475;-87
2023/01/08 21:26:04;;;;;;;67.07;24.08;;;;;;;;;;8191702;28;20177;-88
2023/01/08 21:30:08;;;;;;;73.05;24.63;;;;;;;;;;8190296;29;20060;-88
2023/01/08 21:34:12;;;;;;;53.10;21.20;;;;;;;;;;8180460;28;20154;-88
2023/01/08 21:38:19;;;;;;;52.05;19.83;;;;;;;;;;8187357;29;20051;-87
2023/01/08 21:46:42;;;;;;;37.90;16.92;;;;;;;;;;8190672;29;20122;-87
2023/01/08 21:50:47;;;;;;;57.80;21.63;;;;;;;;;;8179597;29;20047;-88
2023/01/08 21:54:52;;;;;;;63.67;24.35;;;;;;;;;;8191821;29;20054;-88
2023/01/08 21:58:55;;;;;;;55.08;21.38;;;;;;;;;;8186494;29;20291;-89
2023/01/08 22:02:58;;;;;;;59.60;23.00;;;;;;;;;;8179776;29;20047;-89
2023/01/08 22:07:01;;;;;;;57.05;22.23;;;;;;;;;;8169340;29;20072;-90
2023/01/08 22:11:09;;;;;;;60.80;22.30;;;;;;;;;;8195551;29;20058;-89
2023/01/08 22:15:12;;;;;;;51.88;20.67;;;;;;;;;;8167760;29;20490;-89
2023/01/08 22:19:16;;;;;;;54.30;22.27;;;;;;;;;;8168453;29;20416;-89
2023/01/08 22:23:19;;;;;;;58.20;21.80;;;;;;;;;;8190146;29;20055;-89
2023/01/08 22:27:26;;;;;;;59.45;20.05;;;;;;;;;;8179339;29;20098;-89
2023/01/08 22:31:29;;;;;;;50.33;18.88;;;;;;;;;;8188429;29;20047;-89
2023/01/08 22:35:33;;;;;;;49.03;20.23;;;;;;;;;;8185565;29;20046;-88
2023/01/08 22:39:36;;;;;;;16.35;7.68;;;;;;;;;;8181688;29;20055;-87
2023/01/08 22:43:41;;;;;;;44.63;19.38;;;;;;;;;;8182389;29;20047;-87
2023/01/08 22:47:44;;;;;;;43.00;18.77;;;;;;;;;;8183641;28;20055;-89
2023/01/08 22:51:50;;;;;;;41.72;17.90;;;;;;;;;;8185892;29;20983;-87
2023/01/08 22:55:53;;;;;;;44.58;18.42;;;;;;;;;;8184663;29;20049;-87
2023/01/08 22:59:58;;;;;;;49.88;18.60;;;;;;;;;;8178856;28;20043;-86
2023/01/08 23:04:01;;;;;;;39.08;17.77;;;;;;;;;;8198833;29;20114;-88
2023/01/08 23:08:04;;;;;;;38.55;18.05;;;;;;;;;;8199546;29;20047;-86
2023/01/08 23:12:07;;;;;;;40.47;17.83;;;;;;;;;;8200722;28;20118;-86
2023/01/08 23:16:14;;;;;;;17.00;7.43;;;;;;;;;;8200413;29;20047;-86
2023/01/08 23:20:18;;;;;;;47.75;19.80;;;;;;;;;;8200782;28;20054;-86
2023/01/08 23:24:21;;;;;;;45.83;19.83;;;;;;;;;;8200449;29;20047;-86
2023/01/08 23:28:24;;;;;;;40.92;18.13;;;;;;;;;;8200150;29;20058;-86
2023/01/08 23:32:28;;;;;;;46.78;20.00;;;;;;;;;;8200602;29;20043;-85
2023/01/08 23:36:32;;;;;;;60.45;23.42;;;;;;;;;;8200356;29;20051;-86
2023/01/08 23:40:35;;;;;;;39.80;16.30;;;;;;;;;;8200425;28;20047;-86
2023/01/08 23:44:38;;;;;;;49.40;21.30;;;;;;;;;;8199939;29;20039;-85
2023/01/08 23:48:43;;;;;;;43.67;19.23;;;;;;;;;;8200151;29;20067;-87
2023/01/08 23:52:45;;;;;;;47.17;19.60;;;;;;;;;;8200161;29;20051;-87
2023/01/08 23:56:49;;;;;;;38.97;18.08;;;;;;;;;;8199550;28;20118;-86
